sensor_id;sensor_type;location;lat;lon;timestamp;pressure;altitude;pressure_sealevel;temperature;humidity
75936;BME280;64614;32.062;34.834;2023-01-24T00:01:21;101475.94;;;23.16;50.52
75936;BME280;64614;32.062;34.834;2023-01-24T00:03:48;101494.81;;;23.17;50.70
75936;BME280;64614;32.062;34.834;2023-01-24T00:06:14;101482.31;;;23.11;51.09
75936;BME280;64614;32.062;34.834;2023-01-24T00:08:39;101484.13;;;23.21;50.68
75936;BME280;64614;32.062;34.834;2023-01-24T00:11:09;101483.84;;;23.23;50.56
75936;BME280;64614;32.062;34.834;2023-01-24T00:13:35;101493.88;;;23.27;50.43
75936;BME280;64614;32.062;34.834;2023-01-24T00:16:17;101491.22;;;23.22;49.96
75936;BME280;64614;32.062;34.834;2023-01-24T00:18:44;101487.97;;;23.20;50.57
75936;BME280;64614;32.062;34.834;2023-01-24T00:21:15;101482.00;;;23.18;50.22
75936;BME280;64614;32.062;34.834;2023-01-24T00:23:42;101483.59;;;23.19;50.77
75936;BME280;64614;32.062;34.834;2023-01-24T00:26:09;101487.16;;;23.20;50.37
75936;BME280;64614;32.062;34.834;2023-01-24T00:28:35;101480.59;;;23.15;50.54
75936;BME280;64614;32.062;34.834;2023-01-24T00:31:02;101478.69;;;23.16;50.96
75936;BME280;64614;32.062;34.834;2023-01-24T00:33:28;101481.72;;;23.14;50.60
75936;BME280;64614;32.062;34.834;2023-01-24T00:35:53;101478.94;;;22.76;51.32
75936;BME280;64614;32.062;34.834;2023-01-24T00:38:20;101473.88;;;23.08;50.87
75936;BME280;64614;32.062;34.834;2023-01-24T00:40:46;101474.56;;;23.19;50.06
75936;BME280;64614;32.062;34.834;2023-01-24T00:43:12;101470.16;;;23.17;50.39
75936;BME280;64614;32.062;34.834;2023-01-24T00:45:38;101466.88;;;23.21;50.21
75936;BME280;64614;32.062;34.834;2023-01-24T00:48:05;101461.41;;;23.21;50.45
75936;BME280;64614;32.062;34.834;2023-01-24T00:50:31;101466.34;;;23.19;50.58
75936;BME280;64614;32.062;34.834;2023-01-24T00:52:57;101472.88;;;23.23;49.82
75936;BME280;64614;32.062;34.834;2023-01-24T00:55:23;101467.41;;;23.23;50.05
75936;BME280;64614;32.062;34.834;2023-01-24T01:00:32;101458.03;;;23.24;50.21
75936;BME280;64614;32.062;34.834;2023-01-24T01:02:59;101454.91;;;23.11;50.70
75936;BME280;64614;32.062;34.834;2023-01-24T01:05:25;101463.19;;;23.06;50.92
75936;BME280;64614;32.062;34.834;2023-01-24T01:07:51;101463.41;;;23.10;50.16
75936;BME280;64614;32.062;34.834;2023-01-24T01:10:17;101460.41;;;23.11;50.45
75936;BME280;64614;32.062;34.834;2023-01-24T01:12:43;101459.88;;;23.09;50.16
75936;BME280;64614;32.062;34.834;2023-01-24T01:15:09;101456.34;;;23.09;50.77
75936;BME280;64614;32.062;34.834;2023-01-24T01:17:34;101450.25;;;23.12;49.73
75936;BME280;64614;32.062;34.834;2023-01-24T01:20:00;101444.97;;;23.15;50.00
75936;BME280;64614;32.062;34.834;2023-01-24T01:22:26;101455.94;;;23.15;50.26
75936;BME280;64614;32.062;34.834;2023-01-24T01:24:51;101456.03;;;23.10;50.17
75936;BME280;64614;32.062;34.834;2023-01-24T01:27:17;101453.81;;;23.12;50.92
75936;BME280;64614;32.062;34.834;2023-01-24T01:29:42;101455.66;;;23.17;50.17
75936;BME280;64614;32.062;34.834;2023-01-24T01:32:08;101455.50;;;23.08;51.23
75936;BME280;64614;32.062;34.834;2023-01-24T01:34:34;101444.97;;;22.77;51.35
75936;BME280;64614;32.062;34.834;2023-01-24T01:36:59;101447.84;;;22.67;51.21
75936;BME280;64614;32.062;34.834;2023-01-24T01:39:25;101453.25;;;22.72;51.33
75936;BME280;64614;32.062;34.834;2023-01-24T01:41:50;101451.34;;;22.73;51.46
75936;BME280;64614;32.062;34.834;2023-01-24T01:44:24;101445.25;;;22.76;50.85
75936;BME280;64614;32.062;34.834;2023-01-24T01:49:33;101447.22;;;22.70;51.39
75936;BME280;64614;32.062;34.834;2023-01-24T01:52:02;101446.78;;;22.63;51.18
75936;BME280;64614;32.062;34.834;2023-01-24T01:54:37;101449.50;;;22.63;51.43
75936;BME280;64614;32.062;34.834;2023-01-24T01:59:39;101449.09;;;22.75;51.59
75936;BME280;64614;32.062;34.834;2023-01-24T02:02:09;101449.09;;;22.75;51.70
75936;BME280;64614;32.062;34.834;2023-01-24T02:04:37;101451.81;;;22.75;51.37
75936;BME280;64614;32.062;34.834;2023-01-24T02:07:24;101449.91;;;22.75;51.63
75936;BME280;64614;32.062;34.834;2023-01-24T02:09:54;101451.81;;;22.75;51.95
75936;BME280;64614;32.062;34.834;2023-01-24T02:12:23;101445.03;;;22.72;51.60
75936;BME280;64614;32.062;34.834;2023-01-24T02:14:55;101453.47;;;22.76;52.18
75936;BME280;64614;32.062;34.834;2023-01-24T02:17:40;101455.69;;;22.74;51.56
75936;BME280;64614;32.062;34.834;2023-01-24T02:20:42;101458.72;;;22.72;52.12
75936;BME280;64614;32.062;34.834;2023-01-24T02:23:38;101459.53;;;22.73;51.60
75936;BME280;64614;32.062;34.834;2023-01-24T02:26:09;101456.19;;;22.76;51.95
75936;BME280;64614;32.062;34.834;2023-01-24T02:28:36;101453.75;;;22.74;52.27
75936;BME280;64614;32.062;34.834;2023-01-24T02:31:03;101453.31;;;22.67;52.48
75936;BME280;64614;32.062;34.834;2023-01-24T02:33:30;101453.31;;;22.67;52.32
75936;BME280;64614;32.062;34.834;2023-01-24T02:36:20;101457.47;;;22.64;52.81
75936;BME280;64614;32.062;34.834;2023-01-24T02:41:26;101463.16;;;22.68;52.52
75936;BME280;64614;32.062;34.834;2023-01-24T02:43:56;101462.31;;;22.67;52.50
75936;BME280;64614;32.062;34.834;2023-01-24T02:46:23;101459.31;;;22.69;52.80
75936;BME280;64614;32.062;34.834;2023-01-24T02:48:52;101460.91;;;22.70;52.08
75936;BME280;64614;32.062;34.834;2023-01-24T02:51:17;101456.28;;;22.71;51.04
75936;BME280;64614;32.062;34.834;2023-01-24T02:54:02;101457.69;;;22.68;51.76
75936;BME280;64614;32.062;34.834;2023-01-24T02:56:28;101462.56;;;22.71;52.51
75936;BME280;64614;32.062;34.834;2023-01-24T02:59:12;101464.78;;;22.69;52.18
75936;BME280;64614;32.062;34.834;2023-01-24T03:01:37;101456.84;;;22.67;52.45
75936;BME280;64614;32.062;34.834;2023-01-24T03:04:04;101447.75;;;22.72;52.61
75936;BME280;64614;32.062;34.834;2023-01-24T03:06:30;101454.41;;;22.66;52.18
75936;BME280;64614;32.062;34.834;2023-01-24T03:08:55;101452.72;;;22.70;53.20
75936;BME280;64614;32.062;34.834;2023-01-24T03:11:22;101451.38;;;22.67;52.49
75936;BME280;64614;32.062;34.834;2023-01-24T03:13:48;101452.78;;;22.65;52.71
75936;BME280;64614;32.062;34.834;2023-01-24T03:16:32;101461.53;;;22.67;52.60
75936;BME280;64614;32.062;34.834;2023-01-24T03:19:15;101463.59;;;22.56;52.57
75936;BME280;64614;32.062;34.834;2023-01-24T03:21:59;101455.06;;;22.58;52.77
75936;BME280;64614;32.062;34.834;2023-01-24T03:24:43;101458.84;;;22.62;52.25
75936;BME280;64614;32.062;34.834;2023-01-24T03:27:27;101452.31;;;22.58;50.94
75936;BME280;64614;32.062;34.834;2023-01-24T03:30:11;101461.06;;;22.60;51.99
75936;BME280;64614;32.062;34.834;2023-01-24T03:33:02;101463.81;;;22.60;51.79
75936;BME280;64614;32.062;34.834;2023-01-24T03:35:49;101468.44;;;22.59;50.49
75936;BME280;64614;32.062;34.834;2023-01-24T03:38:22;101461.13;;;22.54;51.30
75936;BME280;64614;32.062;34.834;2023-01-24T03:41:06;101458.38;;;22.54;50.73
75936;BME280;64614;32.062;34.834;2023-01-24T03:43:32;101466.31;;;22.56;50.85
75936;BME280;64614;32.062;34.834;2023-01-24T03:45:58;101466.59;;;22.54;50.96
75936;BME280;64614;32.062;34.834;2023-01-24T03:48:23;101469.41;;;22.49;50.78
75936;BME280;64614;32.062;34.834;2023-01-24T03:51:00;101469.94;;;22.51;51.03
75936;BME280;64614;32.062;34.834;2023-01-24T03:53:44;101466.88;;;22.53;51.66
75936;BME280;64614;32.062;34.834;2023-01-24T03:56:10;101465.56;;;22.50;50.71
75936;BME280;64614;32.062;34.834;2023-01-24T03:58:36;101465.81;;;22.49;50.97
75936;BME280;64614;32.062;34.834;2023-01-24T04:01:01;101474.34;;;22.47;51.08
75936;BME280;64614;32.062;34.834;2023-01-24T04:03:27;101465.59;;;22.45;51.31
75936;BME280;64614;32.062;34.834;2023-01-24T04:05:53;101464.72;;;22.50;51.21
75936;BME280;64614;32.062;34.834;2023-01-24T04:08:19;101470.16;;;22.55;50.42
75936;BME280;64614;32.062;34.834;2023-01-24T04:10:44;101470.16;;;22.55;50.45
75936;BME280;64614;32.062;34.834;2023-01-24T04:13:11;101469.06;;;22.56;50.34
75936;BME280;64614;32.062;34.834;2023-01-24T04:15:37;101465.25;;;22.52;50.60
75936;BME280;64614;32.062;34.834;2023-01-24T04:18:04;101474.28;;;22.52;50.08
75936;BME280;64614;32.062;34.834;2023-01-24T04:20:33;101478.16;;;22.51;49.80
75936;BME280;64614;32.062;34.834;2023-01-24T04:23:06;101485.28;;;22.47;48.75
75936;BME280;64614;32.062;34.834;2023-01-24T04:25:32;101491.94;;;22.41;49.73
75936;BME280;64614;32.062;34.834;2023-01-24T04:27:58;101486.16;;;22.43;49.34
75936;BME280;64614;32.062;34.834;2023-01-24T04:30:24;101489.72;;;22.43;47.84
75936;BME280;64614;32.062;34.834;2023-01-24T04:32:49;101491.94;;;22.41;47.07
75936;BME280;64614;32.062;34.834;2023-01-24T04:35:17;101502.63;;;22.37;46.72
75936;BME280;64614;32.062;34.834;2023-01-24T04:37:43;101491.44;;;22.34;46.78
75936;BME280;64614;32.062;34.834;2023-01-24T04:40:10;101502.63;;;22.37;46.61
75936;BME280;64614;32.062;34.834;2023-01-24T04:42:37;101496.38;;;22.32;46.88
75936;BME280;64614;32.062;34.834;2023-01-24T04:47:47;101503.47;;;22.33;47.90
75936;BME280;64614;32.062;34.834;2023-01-24T04:50:12;101502.38;;;22.34;47.29
75936;BME280;64614;32.062;34.834;2023-01-24T04:52:38;101508.34;;;22.36;47.45
75936;BME280;64614;32.062;34.834;2023-01-24T04:55:04;101502.88;;;22.41;47.47
75936;BME280;64614;32.062;34.834;2023-01-24T04:57:30;101508.88;;;22.43;47.24
75936;BME280;64614;32.062;34.834;2023-01-24T04:59:55;101506.38;;;22.47;46.95
75936;BME280;64614;32.062;34.834;2023-01-24T05:02:21;101501.78;;;22.42;47.54
75936;BME280;64614;32.062;34.834;2023-01-24T05:04:47;101509.47;;;22.40;47.39
75936;BME280;64614;32.062;34.834;2023-01-24T05:07:13;101509.63;;;22.49;47.18
75936;BME280;64614;32.062;34.834;2023-01-24T05:09:39;101502.78;;;22.51;47.60
75936;BME280;64614;32.062;34.834;2023-01-24T05:12:04;101512.03;;;22.56;47.31
75936;BME280;64614;32.062;34.834;2023-01-24T05:14:30;101510.34;;;22.60;47.35
75936;BME280;64614;32.062;34.834;2023-01-24T05:16:56;101507.88;;;22.58;46.59
75936;BME280;64614;32.062;34.834;2023-01-24T05:19:21;101508.94;;;22.62;46.03
75936;BME280;64614;32.062;34.834;2023-01-24T05:21:47;101514.34;;;22.67;45.87
75936;BME280;64614;32.062;34.834;2023-01-24T05:24:14;101518.34;;;21.92;42.89
75936;BME280;64614;32.062;34.834;2023-01-24T05:26:40;101523.44;;;21.14;41.33
75936;BME280;64614;32.062;34.834;2023-01-24T05:29:05;101524.47;;;20.42;40.93
75936;BME280;64614;32.062;34.834;2023-01-24T05:31:31;101513.06;;;21.16;41.01
75936;BME280;64614;32.062;34.834;2023-01-24T05:33:57;101527.72;;;21.86;41.69
75936;BME280;64614;32.062;34.834;2023-01-24T05:36:25;101530.97;;;22.17;42.18
75936;BME280;64614;32.062;34.834;2023-01-24T05:38:50;101530.84;;;22.33;42.70
75936;BME280;64614;32.062;34.834;2023-01-24T05:41:18;101528.56;;;22.45;42.54
75936;BME280;64614;32.062;34.834;2023-01-24T05:43:45;101531.19;;;22.56;42.92
75936;BME280;64614;32.062;34.834;2023-01-24T05:46:16;101531.66;;;22.63;43.38
75936;BME280;64614;32.062;34.834;2023-01-24T05:48:43;101543.06;;;22.70;43.15
75936;BME280;64614;32.062;34.834;2023-01-24T05:51:11;101541.63;;;22.78;43.56
75936;BME280;64614;32.062;34.834;2023-01-24T05:53:39;101541.56;;;22.83;43.62
75936;BME280;64614;32.062;34.834;2023-01-24T05:56:11;101537.38;;;22.91;43.13
75936;BME280;64614;32.062;34.834;2023-01-24T05:58:40;101538.66;;;22.98;43.22
75936;BME280;64614;32.062;34.834;2023-01-24T06:01:11;101542.66;;;23.06;43.26
75936;BME280;64614;32.062;34.834;2023-01-24T06:03:38;101541.50;;;23.12;43.03
75936;BME280;64614;32.062;34.834;2023-01-24T06:06:04;101542.78;;;23.20;42.74
75936;BME280;64614;32.062;34.834;2023-01-24T06:08:30;101540.25;;;23.24;43.75
75936;BME280;64614;32.062;34.834;2023-01-24T06:11:05;101542.41;;;23.27;43.38
75936;BME280;64614;32.062;34.834;2023-01-24T06:13:32;101550.50;;;23.37;43.23
75936;BME280;64614;32.062;34.834;2023-01-24T06:16:07;101547.53;;;23.53;43.46
75936;BME280;64614;32.062;34.834;2023-01-24T06:18:34;101557.84;;;23.61;42.82
75936;BME280;64614;32.062;34.834;2023-01-24T06:21:07;101547.69;;;23.81;41.70
75936;BME280;64614;32.062;34.834;2023-01-24T06:23:34;101542.03;;;23.91;42.30
75936;BME280;64614;32.062;34.834;2023-01-24T06:26:00;101542.13;;;24.05;41.44
75936;BME280;64614;32.062;34.834;2023-01-24T06:28:26;101540.41;;;24.23;40.66
75936;BME280;64614;32.062;34.834;2023-01-24T06:31:04;101539.03;;;24.39;40.79
75936;BME280;64614;32.062;34.834;2023-01-24T06:38:51;101553.16;;;24.47;40.80
75936;BME280;64614;32.062;34.834;2023-01-24T06:41:17;101545.53;;;24.30;40.60
75936;BME280;64614;32.062;34.834;2023-01-24T06:43:43;101558.09;;;24.17;41.17
75936;BME280;64614;32.062;34.834;2023-01-24T06:46:10;101554.84;;;24.15;41.14
75936;BME280;64614;32.062;34.834;2023-01-24T06:48:36;101549.00;;;24.02;41.41
75936;BME280;64614;32.062;34.834;2023-01-24T06:51:02;101553.69;;;24.02;41.40
75936;BME280;64614;32.062;34.834;2023-01-24T06:53:27;101549.09;;;23.97;41.89
75936;BME280;64614;32.062;34.834;2023-01-24T06:55:53;101548.56;;;23.95;41.69
75936;BME280;64614;32.062;34.834;2023-01-24T06:58:19;101538.19;;;23.92;42.07
75936;BME280;64614;32.062;34.834;2023-01-24T07:00:44;101556.66;;;23.86;42.09
75936;BME280;64614;32.062;34.834;2023-01-24T07:03:10;101552.56;;;23.84;42.26
75936;BME280;64614;32.062;34.834;2023-01-24T07:05:38;101557.84;;;23.80;42.31
75936;BME280;64614;32.062;34.834;2023-01-24T07:08:05;101560.88;;;23.78;42.31
75936;BME280;64614;32.062;34.834;2023-01-24T07:10:36;101563.09;;;23.76;41.91
75936;BME280;64614;32.062;34.834;2023-01-24T07:13:04;101557.09;;;23.74;42.70
75936;BME280;64614;32.062;34.834;2023-01-24T07:15:29;101556.78;;;23.76;42.46
75936;BME280;64614;32.062;34.834;2023-01-24T07:17:55;101551.91;;;23.73;42.43
75936;BME280;64614;32.062;34.834;2023-01-24T07:20:21;101558.22;;;23.73;41.82
75936;BME280;64614;32.062;34.834;2023-01-24T07:22:47;101557.59;;;23.76;41.80
75936;BME280;64614;32.062;34.834;2023-01-24T07:25:18;101564.72;;;23.77;42.08
75936;BME280;64614;32.062;34.834;2023-01-24T07:27:46;101554.38;;;23.74;42.29
75936;BME280;64614;32.062;34.834;2023-01-24T07:30:13;101552.41;;;23.75;42.27
75936;BME280;64614;32.062;34.834;2023-01-24T07:32:39;101555.69;;;23.77;42.27
75936;BME280;64614;32.062;34.834;2023-01-24T07:35:06;101553.00;;;23.72;42.33
75936;BME280;64614;32.062;34.834;2023-01-24T07:37:32;101551.53;;;23.79;42.24
75936;BME280;64614;32.062;34.834;2023-01-24T07:39:57;101559.22;;;23.77;42.57
75936;BME280;64614;32.062;34.834;2023-01-24T07:42:23;101553.25;;;23.75;42.58
75936;BME280;64614;32.062;34.834;2023-01-24T07:44:49;101551.31;;;23.76;42.57
75936;BME280;64614;32.062;34.834;2023-01-24T07:47:15;101544.94;;;23.81;42.10
75936;BME280;64614;32.062;34.834;2023-01-24T07:49:40;101537.81;;;23.79;42.67
75936;BME280;64614;32.062;34.834;2023-01-24T07:52:06;101541.59;;;23.84;42.22
75936;BME280;64614;32.062;34.834;2023-01-24T07:54:31;101544.25;;;23.89;42.63
75936;BME280;64614;32.062;34.834;2023-01-24T07:56:57;101542.03;;;23.91;42.02
75936;BME280;64614;32.062;34.834;2023-01-24T07:59:23;101542.28;;;23.94;42.21
75936;BME280;64614;32.062;34.834;2023-01-24T08:01:48;101540.34;;;23.95;42.19
75936;BME280;64614;32.062;34.834;2023-01-24T08:04:14;101537.53;;;24.00;42.05
75936;BME280;64614;32.062;34.834;2023-01-24T08:06:40;101529.38;;;23.76;44.21
75936;BME280;64614;32.062;34.834;2023-01-24T08:09:25;101522.31;;;23.89;43.73
75936;BME280;64614;32.062;34.834;2023-01-24T08:11:52;101531.66;;;23.88;43.41
75936;BME280;64614;32.062;34.834;2023-01-24T08:14:17;101527.00;;;23.88;43.89
75936;BME280;64614;32.062;34.834;2023-01-24T08:16:43;101526.69;;;23.90;44.02
75936;BME280;64614;32.062;34.834;2023-01-24T08:19:09;101522.31;;;23.89;43.92
75936;BME280;64614;32.062;34.834;2023-01-24T08:21:34;101519.34;;;23.85;44.40
75936;BME280;64614;32.062;34.834;2023-01-24T08:24:00;101516.22;;;23.92;44.54
75936;BME280;64614;32.062;34.834;2023-01-24T08:26:25;101521.13;;;23.95;44.38
75936;BME280;64614;32.062;34.834;2023-01-24T08:28:51;101511.19;;;23.99;44.35
75936;BME280;64614;32.062;34.834;2023-01-24T08:31:17;101506.50;;;24.00;44.59
75936;BME280;64614;32.062;34.834;2023-01-24T08:33:42;101506.13;;;24.06;44.36
75936;BME280;64614;32.062;34.834;2023-01-24T08:36:08;101504.50;;;24.05;44.43
75936;BME280;64614;32.062;34.834;2023-01-24T08:38:34;101492.31;;;23.98;44.75
75936;BME280;64614;32.062;34.834;2023-01-24T08:41:03;101497.03;;;23.92;44.97
75936;BME280;64614;32.062;34.834;2023-01-24T08:43:29;101486.56;;;23.94;44.79
75936;BME280;64614;32.062;34.834;2023-01-24T08:45:55;101484.88;;;23.98;45.10
75936;BME280;64614;32.062;34.834;2023-01-24T08:48:21;101488.22;;;23.95;45.27
75936;BME280;64614;32.062;34.834;2023-01-24T08:50:46;101486.06;;;23.92;45.09
75936;BME280;64614;32.062;34.834;2023-01-24T08:53:12;101473.44;;;23.91;45.42
75936;BME280;64614;32.062;34.834;2023-01-24T08:55:39;101474.78;;;23.93;45.08
75936;BME280;64614;32.062;34.834;2023-01-24T08:58:04;101469.28;;;23.93;45.55
75936;BME280;64614;32.062;34.834;2023-01-24T09:00:32;101469.00;;;23.95;45.47
75936;BME280;64614;32.062;34.834;2023-01-24T09:02:58;101462.41;;;23.96;45.69
75936;BME280;64614;32.062;34.834;2023-01-24T09:05:26;101454.47;;;23.94;45.88
75936;BME280;64614;32.062;34.834;2023-01-24T09:07:52;101454.16;;;23.96;46.05
75936;BME280;64614;32.062;34.834;2023-01-24T09:10:18;101448.41;;;23.98;45.94
75936;BME280;64614;32.062;34.834;2023-01-24T09:12:43;101435.19;;;24.00;45.93
75936;BME280;64614;32.062;34.834;2023-01-24T09:15:10;101424.50;;;23.98;45.64
75936;BME280;64614;32.062;34.834;2023-01-24T09:17:37;101435.38;;;24.03;46.38
75936;BME280;64614;32.062;34.834;2023-01-24T09:20:05;101428.78;;;24.04;46.37
75936;BME280;64614;32.062;34.834;2023-01-24T09:22:32;101421.59;;;24.08;46.87
75936;BME280;64614;32.062;34.834;2023-01-24T09:24:57;101425.66;;;24.11;46.16
75936;BME280;64614;32.062;34.834;2023-01-24T09:27:23;101421.28;;;24.10;46.29
75936;BME280;64614;32.062;34.834;2023-01-24T09:29:49;101423.69;;;24.12;45.92
75936;BME280;64614;32.062;34.834;2023-01-24T09:32:14;101413.75;;;24.16;46.21
75936;BME280;64614;32.062;34.834;2023-01-24T09:34:42;101414.34;;;24.13;45.89
75936;BME280;64614;32.062;34.834;2023-01-24T09:37:21;101406.13;;;24.13;45.97
75936;BME280;64614;32.062;34.834;2023-01-24T09:39:48;101402.88;;;24.11;46.22
75936;BME280;64614;32.062;34.834;2023-01-24T09:42:22;101399.84;;;24.12;45.79
75936;BME280;64614;32.062;34.834;2023-01-24T09:47:55;101396.78;;;24.14;46.13
75936;BME280;64614;32.062;34.834;2023-01-24T09:50:29;101379.50;;;24.13;45.81
75936;BME280;64614;32.062;34.834;2023-01-24T09:53:00;101378.69;;;24.13;44.40
75936;BME280;64614;32.062;34.834;2023-01-24T09:55:36;101376.25;;;24.11;45.29
75936;BME280;64614;32.062;34.834;2023-01-24T09:58:17;101383.06;;;24.14;45.60
75936;BME280;64614;32.062;34.834;2023-01-24T10:00:54;101369.97;;;24.11;44.76
75936;BME280;64614;32.062;34.834;2023-01-24T10:03:23;101378.69;;;24.13;45.63
75936;BME280;64614;32.062;34.834;2023-01-24T10:05:55;101369.84;;;24.16;45.47
75936;BME280;64614;32.062;34.834;2023-01-24T10:19:24;101336.31;;;24.19;46.15
75936;BME280;64614;32.062;34.834;2023-01-24T10:25:06;101328.56;;;24.21;46.57
75936;BME280;64614;32.062;34.834;2023-01-24T10:27:41;101320.03;;;24.22;46.50
75936;BME280;64614;32.062;34.834;2023-01-24T10:30:18;101311.19;;;24.25;46.59
75936;BME280;64614;32.062;34.834;2023-01-24T10:32:47;101313.44;;;24.23;46.93
75936;BME280;64614;32.062;34.834;2023-01-24T10:35:28;101310.38;;;24.25;46.79
75936;BME280;64614;32.062;34.834;2023-01-24T10:37:58;101304.69;;;24.21;45.69
75936;BME280;64614;32.062;34.834;2023-01-24T10:40:25;101308.44;;;24.25;46.65
75936;BME280;64614;32.062;34.834;2023-01-24T10:42:51;101302.66;;;24.27;46.51
75936;BME280;64614;32.062;34.834;2023-01-24T10:51:15;101297.75;;;24.38;45.50
75936;BME280;64614;32.062;34.834;2023-01-24T10:53:45;101285.94;;;24.37;46.05
75936;BME280;64614;32.062;34.834;2023-01-24T10:56:19;101289.63;;;24.33;44.43
75936;BME280;64614;32.062;34.834;2023-01-24T10:59:03;101292.06;;;24.34;45.92
75936;BME280;64614;32.062;34.834;2023-01-24T11:01:38;101283.63;;;24.31;45.87
75936;BME280;64614;32.062;34.834;2023-01-24T11:04:26;101291.03;;;24.30;46.43
75936;BME280;64614;32.062;34.834;2023-01-24T11:06:53;101290.13;;;24.35;46.53
75936;BME280;64614;32.062;34.834;2023-01-24T11:09:22;101286.56;;;24.34;46.64
75936;BME280;64614;32.062;34.834;2023-01-24T11:11:54;101286.25;;;24.36;46.29
75936;BME280;64614;32.062;34.834;2023-01-24T11:14:47;101285.66;;;24.39;46.40
75936;BME280;64614;32.062;34.834;2023-01-24T11:17:35;101283.69;;;24.39;46.35
75936;BME280;64614;32.062;34.834;2023-01-24T11:20:28;101271.94;;;24.39;46.87
75936;BME280;64614;32.062;34.834;2023-01-24T11:25:59;101280.66;;;24.41;46.62
75936;BME280;64614;32.062;34.834;2023-01-24T11:28:29;101271.00;;;24.44;47.18
75936;BME280;64614;32.062;34.834;2023-01-24T11:31:05;101269.88;;;24.45;46.50
75936;BME280;64614;32.062;34.834;2023-01-24T11:39:02;101267.41;;;24.43;47.68
75936;BME280;64614;32.062;34.834;2023-01-24T11:41:39;101264.38;;;24.45;47.65
75936;BME280;64614;32.062;34.834;2023-01-24T11:47:24;101259.69;;;24.45;47.33
75936;BME280;64614;32.062;34.834;2023-01-24T11:53:07;101256.63;;;24.47;47.50
75936;BME280;64614;32.062;34.834;2023-01-24T11:55:59;101248.25;;;24.29;47.93
75936;BME280;64614;32.062;34.834;2023-01-24T11:59:13;101247.13;;;24.30;48.22
75936;BME280;64614;32.062;34.834;2023-01-24T12:01:44;101248.75;;;24.31;47.03
75936;BME280;64614;32.062;34.834;2023-01-24T12:13:30;101258.78;;;23.99;43.97
75936;BME280;64614;32.062;34.834;2023-01-24T12:16:34;101246.38;;;24.02;44.94
75936;BME280;64614;32.062;34.834;2023-01-24T12:22:05;101251.06;;;24.01;46.60
75936;BME280;64614;32.062;34.834;2023-01-24T12:24:38;101247.78;;;24.13;46.63
75936;BME280;64614;32.062;34.834;2023-01-24T12:27:17;101249.44;;;24.00;46.91
75936;BME280;64614;32.062;34.834;2023-01-24T12:37:41;101247.41;;;24.06;46.80
75936;BME280;64614;32.062;34.834;2023-01-24T12:45:38;101242.31;;;23.99;47.24
75936;BME280;64614;32.062;34.834;2023-01-24T12:51:26;101246.88;;;24.04;47.62
75936;BME280;64614;32.062;34.834;2023-01-24T12:54:02;101250.75;;;24.03;47.45
75936;BME280;64614;32.062;34.834;2023-01-24T12:56:36;101248.19;;;24.06;47.31
75936;BME280;64614;32.062;34.834;2023-01-24T12:59:08;101255.91;;;24.04;47.52
75936;BME280;64614;32.062;34.834;2023-01-24T13:12:45;101246.56;;;24.05;47.78
75936;BME280;64614;32.062;34.834;2023-01-24T13:15:38;101254.72;;;24.11;47.91
75936;BME280;64614;32.062;34.834;2023-01-24T13:21:15;101256.13;;;24.08;47.67
75936;BME280;64614;32.062;34.834;2023-01-24T13:24:01;101257.22;;;24.07;48.05
75936;BME280;64614;32.062;34.834;2023-01-24T13:27:00;101266.28;;;24.07;48.69
75936;BME280;64614;32.062;34.834;2023-01-24T13:32:16;101259.88;;;24.12;48.35
75936;BME280;64614;32.062;34.834;2023-01-24T13:34:55;101257.34;;;24.16;48.55
75936;BME280;64614;32.062;34.834;2023-01-24T13:37:37;101245.97;;;23.81;37.51
75936;BME280;64614;32.062;34.834;2023-01-24T13:40:06;101245.84;;;23.72;40.71
75936;BME280;64614;32.062;34.834;2023-01-24T13:42:44;101251.84;;;23.60;36.01
75936;BME280;64614;32.062;34.834;2023-01-24T13:47:55;101260.91;;;23.46;35.77
75936;BME280;64614;32.062;34.834;2023-01-24T13:50:25;101259.06;;;23.56;34.54
75936;BME280;64614;32.062;34.834;2023-01-24T13:52:53;101249.53;;;23.53;33.63
75936;BME280;64614;32.062;34.834;2023-01-24T13:57:49;101246.69;;;23.44;32.22
75936;BME280;64614;32.062;34.834;2023-01-24T14:00:53;101235.81;;;23.39;32.41
75936;BME280;64614;32.062;34.834;2023-01-24T14:21:25;101260.91;;;23.13;41.70
75936;BME280;64614;32.062;34.834;2023-01-24T14:23:59;101261.94;;;23.17;41.39
75936;BME280;64614;32.062;34.834;2023-01-24T14:26:27;101266.94;;;22.96;41.53
75936;BME280;64614;32.062;34.834;2023-01-24T14:29:02;101263.47;;;22.91;42.03
75936;BME280;64614;32.062;34.834;2023-01-24T14:31:36;101263.19;;;22.73;42.53
75936;BME280;64614;32.062;34.834;2023-01-24T14:34:16;101260.31;;;22.45;43.35
75936;BME280;64614;32.062;34.834;2023-01-24T14:36:44;101268.69;;;22.73;43.80
75936;BME280;64614;32.062;34.834;2023-01-24T14:39:23;101271.22;;;22.50;44.40
75936;BME280;64614;32.062;34.834;2023-01-24T14:41:53;101268.91;;;22.58;44.31
75936;BME280;64614;32.062;34.834;2023-01-24T14:44:24;101267.66;;;22.69;44.28
75936;BME280;64614;32.062;34.834;2023-01-24T14:47:03;101277.66;;;22.60;44.99
75936;BME280;64614;32.062;34.834;2023-01-24T14:49:36;101284.28;;;22.53;46.02
75936;BME280;64614;32.062;34.834;2023-01-24T14:52:23;101285.69;;;22.89;44.72
75936;BME280;64614;32.062;34.834;2023-01-24T14:54:54;101270.63;;;23.06;44.44
75936;BME280;64614;32.062;34.834;2023-01-24T15:02:54;101284.00;;;23.26;43.63
75936;BME280;64614;32.062;34.834;2023-01-24T15:05:35;101275.63;;;23.17;44.16
75936;BME280;64614;32.062;34.834;2023-01-24T15:08:05;101279.78;;;23.15;44.46